Time;durP1;ratioP1;P1;durP2;ratioP2;P2;SDS_P1;SDS_P2;PMS_P1;PMS_P2;Temp;Humidity;BMP_temperature;BMP_pressure;BME280_temperature;BME280_humidity;BME280_pressure;Samples;Min_cycle;Max_cycle;Signal;HPM_P1;HPM_P2
2022/10/17 00:00:33;;;;;;;11.47;9.17;;;;;;;8.48;100.00;102959.63;2062301;28;20180;-64
2022/10/17 00:01:34;;;;;;;12.13;9.03;;;;;;;8.39;100.00;102952.69;2061681;28;20245;-64
2022/10/17 00:02:34;;;;;;;10.30;8.73;;;;;;;8.46;100.00;102961.16;2062869;28;20191;-64
2022/10/17 00:03:36;;;;;;;9.77;8.30;;;;;;;8.45;100.00;102963.13;2061999;28;20732;-64
2022/10/17 00:04:36;;;;;;;13.23;9.50;;;;;;;8.39;100.00;102955.47;2061931;28;20646;-64
2022/10/17 00:05:41;;;;;;;11.50;9.40;;;;;;;8.42;100.00;102961.09;2062275;28;20445;-64
2022/10/17 00:06:42;;;;;;;11.97;8.90;;;;;;;8.31;100.00;102968.31;2062536;28;20248;-64
2022/10/17 00:07:42;;;;;;;12.33;9.77;;;;;;;8.32;100.00;102966.38;2062611;28;20514;-64
2022/10/17 00:08:43;;;;;;;12.77;9.03;;;;;;;7.91;100.00;102898.75;2062341;28;20658;-66
2022/10/17 00:09:44;;;;;;;14.07;9.47;;;;;;;8.33;100.00;102967.97;2062691;28;20195;-65
2022/10/17 00:10:53;;;;;;;14.50;9.60;;;;;;;8.30;100.00;102960.41;2062702;28;20184;-64
2022/10/17 00:11:54;;;;;;;14.30;9.17;;;;;;;8.32;100.00;102972.72;2063095;28;20569;-64
2022/10/17 00:12:54;;;;;;;12.93;9.50;;;;;;;8.33;100.00;102974.31;2062429;28;20442;-64
2022/10/17 00:13:55;;;;;;;12.53;9.60;;;;;;;8.36;100.00;102970.03;2062219;28;20185;-64
2022/10/17 00:14:56;;;;;;;13.75;9.40;;;;;;;7.95;100.00;102916.16;2061327;28;20196;-64
2022/10/17 00:15:57;;;;;;;14.63;9.20;;;;;;;8.37;100.00;102972.44;2062807;28;20200;-64
2022/10/17 00:16:57;;;;;;;14.23;9.57;;;;;;;8.34;100.00;102964.84;2062317;28;20566;-64
2022/10/17 00:17:58;;;;;;;16.80;9.50;;;;;;;8.39;100.00;102989.44;2062584;28;20179;-64
2022/10/17 00:18:59;;;;;;;11.03;8.60;;;;;;;8.40;100.00;102965.38;2062193;28;20557;-64
2022/10/17 00:20:00;;;;;;;15.10;9.43;;;;;;;8.41;100.00;102975.25;2062193;28;20188;-66
2022/10/17 00:21:00;;;;;;;14.40;9.13;;;;;;;8.40;100.00;102968.94;2062535;28;20189;-65
2022/10/17 00:22:01;;;;;;;14.57;8.90;;;;;;;8.43;100.00;102976.50;2062793;28;20195;-66
2022/10/17 00:23:01;;;;;;;13.77;9.30;;;;;;;8.45;100.00;102971.41;2062243;28;20349;-65
2022/10/17 00:24:02;;;;;;;15.07;9.40;;;;;;;7.85;100.00;102871.75;2062285;28;20505;-65
2022/10/17 00:25:03;;;;;;;20.70;10.63;;;;;;;7.96;100.00;102887.41;2061529;28;20190;-64
2022/10/17 00:26:04;;;;;;;14.65;9.70;;;;;;;8.10;100.00;102914.53;2062371;28;20263;-64
2022/10/17 00:27:05;;;;;;;16.93;9.77;;;;;;;8.47;100.00;102971.88;2062439;28;20212;-64
2022/10/17 00:28:08;;;;;;;15.93;9.30;;;;;;;8.37;100.00;102966.09;2062280;28;20428;-64
2022/10/17 00:29:08;;;;;;;15.57;9.90;;;;;;;7.92;100.00;102883.75;2062072;28;20379;-64
2022/10/17 00:30:13;;;;;;;15.20;9.73;;;;;;;8.54;100.00;102980.28;2062514;28;20244;-64
2022/10/17 00:31:15;;;;;;;16.10;10.05;;;;;;;8.52;100.00;102982.63;2062455;28;20190;-64
2022/10/17 00:32:15;;;;;;;17.92;9.60;;;;;;;8.49;100.00;102971.47;2062440;28;20205;-64
2022/10/17 00:33:16;;;;;;;17.77;9.87;;;;;;;8.53;100.00;102975.94;2062165;28;20218;-64
2022/10/17 00:34:16;;;;;;;19.50;9.70;;;;;;;8.54;100.00;102977.53;2061457;28;20245;-64
2022/10/17 00:35:17;;;;;;;19.37;9.57;;;;;;;8.55;100.00;102970.84;2061888;28;20190;-64
2022/10/17 00:36:25;;;;;;;17.00;9.60;;;;;;;8.57;100.00;102976.00;2062556;28;20272;-64
2022/10/17 00:37:26;;;;;;;13.38;8.65;;;;;;;8.58;100.00;102977.59;2062395;28;20187;-64
2022/10/17 00:38:26;;;;;;;12.43;8.80;;;;;;;8.57;100.00;102979.56;2062750;28;20722;-64
2022/10/17 00:39:26;;;;;;;15.70;8.67;;;;;;;8.59;100.00;102977.25;2062503;28;20205;-64
2022/10/17 00:40:27;;;;;;;12.67;9.13;;;;;;;8.61;100.00;102979.66;2062479;28;20195;-64
2022/10/17 00:41:31;;;;;;;14.70;8.40;;;;;;;8.59;100.00;102981.97;2062402;28;20225;-65
2022/10/17 00:42:32;;;;;;;13.27;8.93;;;;;;;8.52;100.00;102982.63;2062324;28;20196;-64
2022/10/17 00:43:53;;;;;;;12.63;8.20;;;;;;;8.51;100.00;102980.22;2061832;28;20182;-64
2022/10/17 00:45:14;;;;;;;11.35;8.05;;;;;;;8.49;100.00;102982.53;2061163;28;20300;-64
2022/10/17 00:46:14;;;;;;;11.85;8.30;;;;;;;8.41;100.00;102984.34;2062580;28;20171;-64
2022/10/17 00:47:19;;;;;;;12.13;8.83;;;;;;;8.40;100.00;102979.19;2062476;28;20191;-64
2022/10/17 00:48:22;;;;;;;14.32;8.68;;;;;;;8.38;100.00;102984.25;2062099;28;20193;-65
2022/10/17 00:49:26;;;;;;;15.55;9.30;;;;;;;8.25;100.00;102982.78;2062001;28;20657;-65
2022/10/17 00:50:27;;;;;;;13.90;9.88;;;;;;;8.17;100.00;102984.56;2061525;28;20286;-64
2022/10/17 00:51:37;;;;;;;15.55;10.10;;;;;;;8.18;100.00;102986.16;2062236;28;20182;-64
2022/10/17 00:52:39;;;;;;;15.35;9.63;;;;;;;8.13;100.00;102983.66;2062391;28;20254;-64
2022/10/17 00:53:40;;;;;;;15.68;9.27;;;;;;;8.16;100.00;102985.69;2061804;28;20702;-64
2022/10/17 00:54:45;;;;;;;11.90;8.60;;;;;;;8.17;100.00;102986.50;2061701;28;20563;-64
2022/10/17 00:55:51;;;;;;;13.65;8.85;;;;;;;7.75;100.00;102922.00;2062344;28;20183;-64
2022/10/17 00:56:53;;;;;;;14.23;8.65;;;;;;;7.50;100.00;102884.72;2062101;28;20224;-64
2022/10/17 00:57:55;;;;;;;13.18;8.05;;;;;;;8.08;100.00;102986.72;2062623;28;20575;-64
2022/10/17 00:58:55;;;;;;;11.48;8.65;;;;;;;7.90;100.00;102968.13;2061907;28;20241;-65
2022/10/17 00:59:58;;;;;;;11.20;8.67;;;;;;;8.08;100.00;102988.66;2062427;28;20252;-64
2022/10/17 01:01:00;;;;;;;13.52;8.68;;;;;;;8.05;100.00;102998.47;2062136;28;20187;-64
2022/10/17 01:02:05;;;;;;;12.48;8.43;;;;;;;8.05;100.00;102986.63;2062495;28;20190;-65
2022/10/17 01:03:06;;;;;;;10.57;8.68;;;;;;;8.05;100.00;102995.69;2062046;28;20291;-64
2022/10/17 01:04:08;;;;;;;10.40;8.37;;;;;;;8.04;100.00;102993.31;2061433;28;20661;-65
2022/10/17 01:05:09;;;;;;;10.98;8.70;;;;;;;8.03;100.00;102994.44;2061639;28;20775;-64
2022/10/17 01:06:10;;;;;;;12.73;8.35;;;;;;;7.99;100.00;103002.66;2062359;28;20187;-64
2022/10/17 01:07:10;;;;;;;11.70;8.60;;;;;;;7.55;100.00;102934.94;2062666;28;20249;-64
2022/10/17 01:08:11;;;;;;;14.07;9.03;;;;;;;7.94;100.00;102986.34;2062381;28;20226;-64
2022/10/17 01:09:12;;;;;;;12.98;8.63;;;;;;;7.72;100.00;102953.06;2062156;28;20194;-65
2022/10/17 01:10:13;;;;;;;15.03;9.40;;;;;;;7.93;100.00;102990.28;2063678;28;20271;-64
2022/10/17 01:11:38;;;;;;;15.00;9.75;;;;;;;7.92;100.00;102982.34;2063694;28;20727;-64
2022/10/17 01:12:56;;;;;;;16.33;9.80;;;;;;;7.93;100.00;102993.03;2063888;28;20320;-64
2022/10/17 01:14:01;;;;;;;16.10;9.32;;;;;;;7.90;100.00;102988.22;2063510;28;20270;-65
2022/10/17 01:15:07;;;;;;;14.77;8.95;;;;;;;7.90;100.00;102988.22;2062844;28;20202;-65
2022/10/17 01:16:30;;;;;;;12.32;9.27;;;;;;;7.89;100.00;102985.84;2063832;28;20197;-65
2022/10/17 01:17:35;;;;;;;15.05;9.23;;;;;;;7.83;100.00;102977.03;2064059;28;20221;-65
2022/10/17 01:18:47;;;;;;;13.18;8.88;;;;;;;7.87;100.00;102983.44;2063242;28;20565;-65
2022/10/17 01:19:48;;;;;;;16.30;9.68;;;;;;;7.87;100.00;102990.91;2063814;28;20510;-65
2022/10/17 01:21:08;;;;;;;14.50;9.43;;;;;;;7.87;100.00;102996.44;2063786;28;20732;-65
2022/10/17 01:22:19;;;;;;;14.55;9.77;;;;;;;7.87;100.00;102994.47;2063465;28;20194;-65
2022/10/17 01:23:47;;;;;;;11.85;9.13;;;;;;;7.87;100.00;102988.97;2063604;28;20188;-65
2022/10/17 01:24:48;;;;;;;15.25;9.68;;;;;;;7.88;100.00;103000.78;2061902;28;20190;-65
2022/10/17 01:26:09;;;;;;;24.23;10.20;;;;;;;7.88;100.00;102998.84;2063095;28;20247;-65
2022/10/17 01:27:44;;;;;;;19.83;9.77;;;;;;;7.90;100.00;102996.50;2063577;28;20266;-66
2022/10/17 01:29:03;;;;;;;17.58;10.10;;;;;;;7.90;100.00;102996.50;2063422;28;20209;-65
2022/10/17 01:30:33;;;;;;;13.68;8.82;;;;;;;7.79;100.00;102989.13;2063820;28;20190;-65
2022/10/17 01:31:51;;;;;;;26.27;9.52;;;;;;;7.77;100.00;102996.97;2063283;28;20261;-65
2022/10/17 01:33:02;;;;;;;18.88;8.45;;;;;;;7.12;100.00;102906.59;2063418;28;20798;-65
2022/10/17 01:34:20;;;;;;;14.20;8.35;;;;;;;7.15;100.00;102903.94;2063143;28;20178;-65
2022/10/17 01:35:31;;;;;;;19.30;9.20;;;;;;;7.75;100.00;102989.03;2063025;28;20193;-64
2022/10/17 01:36:37;;;;;;;18.27;8.77;;;;;;;7.75;100.00;103000.06;2063690;28;20191;-64
2022/10/17 01:37:52;;;;;;;16.48;8.68;;;;;;;7.24;100.00;102920.31;2063637;28;20276;-64
2022/10/17 01:39:20;;;;;;;18.08;9.38;;;;;;;7.77;100.00;102999.72;2063062;28;20194;-64
2022/10/17 01:40:28;;;;;;;19.58;9.35;;;;;;;7.74;100.00;103001.22;2062323;28;20819;-65
2022/10/17 01:41:37;;;;;;;15.40;8.55;;;;;;;7.72;100.00;102999.97;2063040;28;20194;-64
2022/10/17 01:43:04;;;;;;;17.80;8.45;;;;;;;7.68;100.00;103001.88;2063690;28;20193;-64
2022/10/17 01:44:13;;;;;;;14.93;9.07;;;;;;;7.66;100.00;103004.19;2062525;28;20189;-64
2022/10/17 01:45:24;;;;;;;14.10;8.75;;;;;;;7.63;100.00;103004.91;2062472;28;20649;-66
2022/10/17 01:46:34;;;;;;;18.10;8.65;;;;;;;7.61;100.00;103007.19;2063903;28;20586;-65
2022/10/17 01:47:35;;;;;;;15.52;8.75;;;;;;;7.60;100.00;103008.34;2063713;28;20167;-65
2022/10/17 01:48:39;;;;;;;14.13;9.73;;;;;;;7.58;100.00;103005.94;2063201;28;20191;-64
2022/10/17 01:49:42;;;;;;;15.85;9.88;;;;;;;7.55;100.00;103009.44;2063258;28;20676;-65
2022/10/17 01:50:52;;;;;;;12.40;9.40;;;;;;;7.53;100.00;103008.19;2063215;28;20194;-65
2022/10/17 01:52:08;;;;;;;15.27;9.88;;;;;;;7.49;100.00;103010.81;2063888;28;20178;-64
2022/10/17 01:53:20;;;;;;;10.75;9.13;;;;;;;7.46;100.00;103007.97;2063227;28;20186;-65
2022/10/17 01:54:26;;;;;;;12.75;9.45;;;;;;;7.35;100.00;103002.19;2062990;28;20195;-64
2022/10/17 01:55:34;;;;;;;13.75;8.95;;;;;;;7.41;100.00;103011.81;2063094;28;20197;-64
2022/10/17 01:56:37;;;;;;;11.93;8.95;;;;;;;7.38;100.00;103008.97;2063648;28;20505;-64
2022/10/17 01:57:42;;;;;;;10.80;8.73;;;;;;;7.05;100.00;102961.53;2063614;28;20566;-65
2022/10/17 01:58:49;;;;;;;13.13;8.80;;;;;;;7.34;100.00;103016.34;2063065;28;20580;-64
2022/10/17 01:59:52;;;;;;;13.00;9.27;;;;;;;6.95;100.00;102962.84;2063423;28;20546;-65
2022/10/17 02:00:55;;;;;;;13.18;8.98;;;;;;;6.55;100.00;102900.66;2063168;28;20192;-65
2022/10/17 02:01:58;;;;;;;13.35;9.07;;;;;;;7.21;100.00;103009.25;2063910;28;20190;-64
2022/10/17 02:03:03;;;;;;;11.63;8.82;;;;;;;7.23;100.00;103018.78;2063290;28;21503;-64
2022/10/17 02:04:07;;;;;;;12.50;9.40;;;;;;;7.23;100.00;103023.50;2062863;28;20730;-65
2022/10/17 02:05:09;;;;;;;12.32;9.35;;;;;;;7.21;100.00;103029.38;2062432;28;20178;-64
2022/10/17 02:06:09;;;;;;;11.98;9.10;;;;;;;6.58;100.00;102927.53;2063568;28;20186;-64
2022/10/17 02:07:12;;;;;;;13.43;9.13;;;;;;;7.19;100.00;103023.44;2063899;28;20221;-64
2022/10/17 02:08:13;;;;;;;14.60;9.93;;;;;;;6.84;100.00;102981.06;2063389;28;20209;-64
2022/10/17 02:09:23;;;;;;;13.03;9.27;;;;;;;7.16;100.00;103032.38;2063111;28;20221;-64
2022/10/17 02:10:54;;;;;;;17.55;9.27;;;;;;;7.06;100.00;103016.34;2063319;28;20202;-65
2022/10/17 02:12:13;;;;;;;16.85;9.80;;;;;;;7.12;100.00;103030.69;2062957;28;20261;-66
2022/10/17 02:13:30;;;;;;;12.23;9.25;;;;;;;6.79;100.00;102984.06;2062361;28;20268;-66
2022/10/17 02:14:53;;;;;;;13.35;9.35;;;;;;;7.08;100.00;103035.31;2062799;28;20581;-65
2022/10/17 02:15:59;;;;;;;16.38;9.57;;;;;;;7.05;100.00;103028.53;2063489;28;20196;-65
2022/10/17 02:17:15;;;;;;;17.25;9.57;;;;;;;7.05;100.00;103036.00;2063180;28;20194;-65
2022/10/17 02:18:37;;;;;;;12.25;9.07;;;;;;;7.03;100.00;103028.06;2063143;28;20197;-65
2022/10/17 02:19:46;;;;;;;12.43;9.40;;;;;;;7.03;100.00;103038.31;2063138;28;20193;-65
2022/10/17 02:20:59;;;;;;;13.32;8.63;;;;;;;7.02;100.00;103040.25;2062636;28;20218;-65
2022/10/17 02:22:18;;;;;;;15.25;9.57;;;;;;;7.04;100.00;103042.66;2063490;28;20666;-65
2022/10/17 02:23:33;;;;;;;18.35;9.63;;;;;;;7.05;100.00;103038.75;2062304;28;20217;-65
2022/10/17 02:24:51;;;;;;;15.45;8.95;;;;;;;7.06;100.00;103041.16;2063023;28;20170;-65
2022/10/17 02:25:57;;;;;;;11.55;8.00;;;;;;;7.06;100.00;103041.16;2063341;28;20641;-65
2022/10/17 02:27:30;;;;;;;10.35;8.75;;;;;;;7.07;100.00;103047.50;2062972;28;20205;-65
2022/10/17 02:28:46;;;;;;;12.48;8.57;;;;;;;7.06;100.00;103040.34;2061665;28;20280;-65
2022/10/17 02:29:54;;;;;;;12.48;8.27;;;;;;;7.05;100.00;103038.75;2063246;28;20209;-65
2022/10/17 02:31:15;;;;;;;11.50;8.13;;;;;;;7.00;100.00;103052.78;2063032;28;20193;-65
2022/10/17 02:32:42;;;;;;;14.20;8.00;;;;;;;6.82;100.00;103021.16;2063448;28;20729;-65
2022/10/17 02:33:45;;;;;;;13.90;8.13;;;;;;;7.02;100.00;103051.28;2062968;28;20706;-64
2022/10/17 02:34:49;;;;;;;16.48;8.68;;;;;;;7.02;100.00;103045.75;2062274;28;20568;-65
2022/10/17 02:35:54;;;;;;;16.88;8.48;;;;;;;7.01;100.00;103046.91;2063482;28;20605;-65
2022/10/17 02:36:59;;;;;;;17.33;8.75;;;;;;;6.92;100.00;103037.19;2063088;28;20244;-64
2022/10/17 02:38:01;;;;;;;20.73;9.07;;;;;;;6.79;100.00;103019.88;2063324;28;20190;-64
2022/10/17 02:39:04;;;;;;;18.17;9.32;;;;;;;7.01;100.00;103049.69;2062597;28;20197;-64
2022/10/17 02:40:07;;;;;;;16.73;8.90;;;;;;;7.03;100.00;103058.38;2062487;28;20224;-64
2022/10/17 02:41:11;;;;;;;15.63;8.43;;;;;;;7.01;100.00;103055.19;2062017;28;20194;-65
2022/10/17 02:42:13;;;;;;;14.57;7.90;;;;;;;6.46;100.00;102966.94;2063036;28;20712;-65
2022/10/17 02:43:14;;;;;;;15.95;8.77;;;;;;;7.01;100.00;103059.88;2063191;28;20859;-64
2022/10/17 02:44:15;;;;;;;14.93;8.53;;;;;;;6.98;100.00;103052.34;2062315;28;20260;-65
2022/10/17 02:45:16;;;;;;;10.27;7.55;;;;;;;6.21;100.00;102926.03;2063022;28;20518;-64
2022/10/17 02:46:22;;;;;;;12.68;8.23;;;;;;;7.00;100.00;103053.59;2063303;28;20198;-64
2022/10/17 02:47:47;;;;;;;11.13;7.75;;;;;;;6.46;100.00;102977.94;2063066;28;20221;-66
2022/10/17 02:48:52;;;;;;;13.27;8.05;;;;;;;6.62;100.00;103002.84;2053281;28;20238;-64
2022/10/17 02:49:55;;;;;;;14.13;7.90;;;;;;;6.99;100.00;103064.97;2060877;28;20695;-64
2022/10/17 02:51:22;;;;;;;12.85;8.27;;;;;;;7.01;100.00;103063.47;2062770;28;20226;-64
2022/10/17 02:52:47;;;;;;;11.95;8.07;;;;;;;7.03;100.00;103063.91;2063194;28;20559;-65
2022/10/17 02:54:12;;;;;;;12.23;7.60;;;;;;;7.02;100.00;103067.03;2062417;28;20216;-65
2022/10/17 02:55:22;;;;;;;13.40;7.43;;;;;;;7.02;100.00;103072.56;2062570;28;20204;-65
2022/10/17 02:56:25;;;;;;;14.70;8.15;;;;;;;7.00;100.00;103078.41;2063264;28;20239;-65
2022/10/17 02:57:37;;;;;;;11.40;7.93;;;;;;;6.98;100.00;103072.41;2062938;28;20204;-65
2022/10/17 02:58:39;;;;;;;12.90;8.18;;;;;;;6.99;100.00;103078.75;2062817;28;20178;-65
2022/10/17 02:59:42;;;;;;;12.13;8.60;;;;;;;6.98;100.00;103075.19;2062770;28;20241;-65
2022/10/17 03:00:42;;;;;;;12.18;8.48;;;;;;;6.98;100.00;103094.47;2062955;28;20194;-64
2022/10/17 03:01:43;;;;;;;13.67;8.90;;;;;;;6.32;100.00;102966.50;2063107;28;20183;-64
2022/10/17 03:02:46;;;;;;;17.33;8.47;;;;;;;6.96;100.00;103068.41;2062717;28;20186;-64
2022/10/17 03:03:46;;;;;;;12.27;8.57;;;;;;;6.99;100.00;103078.75;2062501;28;20627;-64
2022/10/17 03:04:47;;;;;;;11.97;8.07;;;;;;;6.92;100.00;103071.06;2061938;28;20272;-64
2022/10/17 03:05:47;;;;;;;13.60;9.47;;;;;;;6.98;100.00;103079.91;2063065;28;20189;-64
2022/10/17 03:06:48;;;;;;;11.37;8.60;;;;;;;6.96;100.00;103073.91;2062933;28;20201;-64
2022/10/17 03:07:49;;;;;;;11.70;8.87;;;;;;;6.72;100.00;103027.94;2063093;28;20574;-64
2022/10/17 03:08:49;;;;;;;12.33;8.00;;;;;;;7.06;100.00;103076.19;2062463;28;20190;-64
2022/10/17 03:09:50;;;;;;;13.63;8.33;;;;;;;7.03;100.00;103079.66;2062921;28;20178;-64
2022/10/17 03:10:50;;;;;;;13.27;7.90;;;;;;;6.81;100.00;103044.34;2062526;28;20244;-64
2022/10/17 03:11:51;;;;;;;12.73;7.83;;;;;;;7.02;100.00;103078.06;2063210;28;20693;-64
2022/10/17 03:12:51;;;;;;;11.00;7.63;;;;;;;7.00;100.00;103077.59;2062884;28;20269;-64
2022/10/17 03:13:52;;;;;;;10.57;7.80;;;;;;;7.00;100.00;103075.66;2062795;28;20211;-64
2022/10/17 03:14:52;;;;;;;13.73;8.50;;;;;;;7.01;100.00;103079.19;2061983;28;20194;-64
2022/10/17 03:15:52;;;;;;;13.53;7.70;;;;;;;7.00;100.00;103075.66;2063065;28;20729;-64
2022/10/17 03:16:53;;;;;;;10.60;7.87;;;;;;;6.99;100.00;103076.00;2062747;28;20289;-64
2022/10/17 03:17:54;;;;;;;12.53;7.87;;;;;;;7.00;100.00;103074.84;2062879;28;20180;-64
2022/10/17 03:18:54;;;;;;;18.88;8.73;;;;;;;6.91;100.00;103061.19;2062268;28;20189;-64
2022/10/17 03:19:55;;;;;;;24.20;9.60;;;;;;;6.97;100.00;103068.06;2063100;28;20180;-64
2022/10/17 03:20:55;;;;;;;31.63;9.40;;;;;;;6.99;100.00;103078.75;2062801;28;20271;-64
2022/10/17 03:21:56;;;;;;;23.40;10.17;;;;;;;7.01;100.00;103079.19;2063018;28;20211;-64
2022/10/17 03:22:56;;;;;;;15.33;8.43;;;;;;;6.64;100.00;103015.09;2062423;28;20221;-64
2022/10/17 03:23:57;;;;;;;13.47;8.00;;;;;;;7.03;100.00;103074.16;2062545;28;20252;-64
2022/10/17 03:24:57;;;;;;;11.17;7.20;;;;;;;7.04;100.00;103086.78;2061657;28;20182;-64
2022/10/17 03:26:01;;;;;;;10.87;7.70;;;;;;;6.88;100.00;103048.09;2062814;28;20691;-65
2022/10/17 03:27:02;;;;;;;11.18;7.45;;;;;;;7.01;100.00;103076.44;2062812;28;20186;-63
2022/10/17 03:28:04;;;;;;;10.10;7.30;;;;;;;6.94;100.00;103063.25;2062770;28;20184;-64
2022/10/17 03:29:04;;;;;;;9.63;7.68;;;;;;;6.60;100.00;103024.41;2062651;28;20267;-64
2022/10/17 03:30:05;;;;;;;15.57;7.33;;;;;;;7.00;100.00;103074.84;2062871;28;20332;-64
2022/10/17 03:31:12;;;;;;;12.55;8.20;;;;;;;6.94;100.00;103074.28;2062626;28;20188;-64
2022/10/17 03:32:12;;;;;;;11.27;8.43;;;;;;;6.70;100.00;103044.03;2062651;28;20204;-64
2022/10/17 03:33:13;;;;;;;14.00;8.07;;;;;;;6.94;100.00;103082.56;2062577;28;20228;-64
2022/10/17 03:34:15;;;;;;;9.67;7.63;;;;;;;6.93;100.00;103078.19;2061819;28;20201;-64
2022/10/17 03:35:16;;;;;;;12.50;8.27;;;;;;;6.89;100.00;103074.53;2062173;28;20185;-65
2022/10/17 03:36:18;;;;;;;9.80;7.27;;;;;;;6.88;100.00;103075.66;2062960;28;20182;-63
2022/10/17 03:37:18;;;;;;;9.50;7.10;;;;;;;6.87;100.00;103089.81;2062674;28;20273;-65
2022/10/17 03:38:18;;;;;;;12.87;7.63;;;;;;;6.84;100.00;103073.97;2062784;28;20656;-65
2022/10/17 03:39:19;;;;;;;9.27;7.40;;;;;;;6.80;100.00;103079.38;2062384;28;20200;-65
2022/10/17 03:40:19;;;;;;;9.97;8.33;;;;;;;6.77;100.00;103082.03;2062655;28;20189;-65
2022/10/17 03:41:20;;;;;;;9.40;7.90;;;;;;;6.73;100.00;103083.88;2062681;28;20292;-65
2022/10/17 03:42:21;;;;;;;9.77;7.97;;;;;;;6.72;100.00;103085.03;2062839;28;20690;-65
2022/10/17 03:43:21;;;;;;;14.07;8.60;;;;;;;6.70;100.00;103088.13;2062253;28;20678;-65
2022/10/17 03:44:21;;;;;;;16.20;8.70;;;;;;;5.76;100.00;102944.63;2062148;28;20233;-65
2022/10/17 03:45:22;;;;;;;14.07;8.80;;;;;;;5.75;100.00;102949.31;2062417;28;20236;-65
2022/10/17 03:46:22;;;;;;;15.97;9.83;;;;;;;6.62;100.00;103083.53;2062980;28;20271;-65
2022/10/17 03:47:23;;;;;;;15.97;8.97;;;;;;;6.55;100.00;103079.75;2062554;28;20193;-65
2022/10/17 03:48:25;;;;;;;12.23;8.30;;;;;;;6.62;100.00;103088.25;2062403;28;20415;-65
2022/10/17 03:49:25;;;;;;;13.27;9.00;;;;;;;6.60;100.00;103093.28;2062404;28;20244;-65
2022/10/17 03:50:25;;;;;;;13.10;8.20;;;;;;;6.20;100.00;103038.09;2062715;28;20190;-65
2022/10/17 03:51:26;;;;;;;14.47;8.30;;;;;;;6.60;100.00;103093.28;2062331;28;20289;-66
2022/10/17 03:52:26;;;;;;;12.47;8.93;;;;;;;6.58;100.00;103093.66;2062684;28;20221;-64
2022/10/17 03:53:28;;;;;;;15.17;8.43;;;;;;;6.43;100.00;103088.03;2061842;28;20207;-63
2022/10/17 03:54:28;;;;;;;11.45;8.30;;;;;;;6.52;100.00;103086.75;2062459;28;20289;-63
2022/10/17 03:55:29;;;;;;;12.00;8.93;;;;;;;6.38;100.00;103072.53;2062253;28;20186;-65
2022/10/17 03:56:29;;;;;;;14.53;9.17;;;;;;;6.56;100.00;103097.91;2062862;28;20202;-64
2022/10/17 03:57:30;;;;;;;14.87;8.93;;;;;;;6.55;100.00;103107.28;2062536;28;20190;-64
2022/10/17 03:58:30;;;;;;;14.77;9.13;;;;;;;6.54;100.00;103103.75;2062213;28;20562;-64
2022/10/17 03:59:30;;;;;;;15.53;9.40;;;;;;;6.40;100.00;103081.25;2062249;28;20281;-64
2022/10/17 04:00:31;;;;;;;12.10;8.50;;;;;;;6.24;100.00;103054.75;2062526;28;20290;-64
2022/10/17 04:01:31;;;;;;;12.07;8.80;;;;;;;6.51;100.00;103098.91;2062350;28;20182;-64
2022/10/17 04:02:34;;;;;;;14.27;8.43;;;;;;;6.53;100.00;103106.84;2061517;28;20187;-65
2022/10/17 04:03:34;;;;;;;12.02;8.32;;;;;;;6.53;100.00;103104.09;2062123;28;20276;-65
2022/10/17 04:04:35;;;;;;;11.87;8.63;;;;;;;6.54;100.00;103105.69;2062105;28;20193;-64
2022/10/17 04:05:35;;;;;;;11.23;8.63;;;;;;;6.54;100.00;103108.44;2062509;28;20183;-64
2022/10/17 04:06:37;;;;;;;14.20;9.37;;;;;;;6.56;100.00;103108.91;2062620;28;20190;-65
2022/10/17 04:07:37;;;;;;;12.57;8.60;;;;;;;6.54;100.00;103112.00;2062520;28;20741;-64
2022/10/17 04:08:38;;;;;;;13.03;7.70;;;;;;;6.44;100.00;103097.88;2062016;28;20565;-64
2022/10/17 04:09:39;;;;;;;14.30;8.77;;;;;;;6.47;100.00;103099.97;2059092;28;20201;-70
2022/10/17 04:10:39;;;;;;;13.57;8.80;;;;;;;6.53;100.00;103110.41;2060689;28;20764;-65
2022/10/17 04:11:40;;;;;;;12.13;8.43;;;;;;;6.54;100.00;103114.78;2061853;28;20197;-64
2022/10/17 04:12:40;;;;;;;11.93;9.27;;;;;;;6.56;100.00;103120.72;2061644;28;20194;-65
2022/10/17 04:13:41;;;;;;;13.23;9.47;;;;;;;6.37;100.00;103087.47;2062017;28;20223;-65
2022/10/17 04:14:41;;;;;;;16.27;9.60;;;;;;;6.54;100.00;103112.00;2060931;28;20293;-63
2022/10/17 04:15:42;;;;;;;18.43;9.63;;;;;;;6.57;100.00;103116.03;2062296;28;20203;-61
2022/10/17 04:16:42;;;;;;;12.67;9.30;;;;;;;6.13;100.00;103056.34;2062462;28;20182;-66
2022/10/17 04:17:43;;;;;;;14.80;9.53;;;;;;;6.56;100.00;103117.97;2062626;28;20236;-65
2022/10/17 04:18:43;;;;;;;18.63;8.90;;;;;;;6.57;100.00;103122.31;2062394;28;20210;-63
2022/10/17 04:19:44;;;;;;;21.13;10.17;;;;;;;6.58;100.00;103125.91;2062903;28;20201;-63
2022/10/17 04:20:44;;;;;;;19.70;9.73;;;;;;;6.57;100.00;103127.06;2062028;28;20199;-64
2022/10/17 04:21:44;;;;;;;20.87;9.77;;;;;;;6.58;100.00;103125.91;2062215;28;20584;-64
2022/10/17 04:22:45;;;;;;;71.57;13.47;;;;;;;7.21;100.00;103131.44;2060992;28;20220;-62
2022/10/17 04:23:45;;;;;;;49.13;13.87;;;;;;;8.37;100.00;103149.28;2062024;28;20195;-61
2022/10/17 04:24:46;;;;;;;31.67;11.90;;;;;;;9.32;100.00;103149.50;2061753;28;20583;-62
2022/10/17 04:25:46;;;;;;;28.53;8.77;;;;;;;9.98;100.00;103155.59;2062158;28;20220;-62
2022/10/17 04:26:50;;;;;;;29.83;8.33;;;;;;;10.76;100.00;103146.66;2062924;28;20187;-62
2022/10/17 04:27:50;;;;;;;20.17;7.07;;;;;;;10.86;100.00;103060.81;2063163;28;20652;-59
2022/10/17 04:28:51;;;;;;;13.60;6.43;;;;;;;12.01;100.00;103169.75;2061864;28;21055;-61
2022/10/17 04:29:52;;;;;;;11.37;6.63;;;;;;;11.91;100.00;103091.81;2061145;28;20228;-63
2022/10/17 04:31:07;;;;;;;11.10;6.60;;;;;;;12.30;100.00;103090.22;2062162;28;20198;-61
2022/10/17 04:32:07;;;;;;;12.13;6.17;;;;;;;13.28;100.00;103183.53;2061783;28;20192;-65
2022/10/17 04:33:07;;;;;;;14.27;6.87;;;;;;;13.13;100.00;103167.13;2061862;28;20468;-63
2022/10/17 04:34:08;;;;;;;12.17;7.10;;;;;;;12.76;100.00;103133.84;2061527;28;20186;-64
2022/10/17 04:35:08;;;;;;;13.17;7.23;;;;;;;12.50;100.00;103134.06;2061351;28;20224;-64
2022/10/17 04:36:12;;;;;;;14.93;8.03;;;;;;;12.17;100.00;103125.84;2062012;28;20185;-62
2022/10/17 04:37:12;;;;;;;16.10;8.67;;;;;;;11.85;100.00;103113.63;2062337;28;20192;-63
2022/10/17 04:38:13;;;;;;;16.40;11.13;;;;;;;11.49;100.00;103108.00;2062906;28;20980;-64
2022/10/17 04:39:13;;;;;;;24.80;13.43;;;;;;;11.20;100.00;103106.88;2061467;28;20198;-68
2022/10/17 04:40:14;;;;;;;21.90;11.03;;;;;;;10.39;100.00;103018.13;2061707;28;20195;-67
2022/10/17 04:41:16;;;;;;;26.53;17.60;;;;;;;10.13;100.00;103012.59;2058549;28;20191;-67
2022/10/17 04:42:16;;;;;;;28.93;15.97;;;;;;;10.09;100.00;103056.88;2058759;28;20201;-67
2022/10/17 04:43:17;;;;;;;18.47;13.60;;;;;;;10.20;100.00;103098.63;2059548;28;20969;-67
2022/10/17 04:44:19;;;;;;;25.57;14.07;;;;;;;9.69;100.00;103055.72;2055783;28;20376;-67
2022/10/17 04:45:20;;;;;;;23.70;12.67;;;;;;;9.36;100.00;103047.19;2061791;28;20701;-67
2022/10/17 04:46:20;;;;;;;23.53;15.73;;;;;;;9.63;100.00;103115.34;2060756;28;20849;-67
2022/10/17 04:47:20;;;;;;;30.00;18.77;;;;;;;9.44;100.00;103123.66;2061437;28;20229;-67
2022/10/17 04:48:21;;;;;;;29.53;16.80;;;;;;;9.27;100.00;103122.13;2060933;28;20192;-68
2022/10/17 04:49:21;;;;;;;22.50;13.70;;;;;;;9.12;100.00;103125.75;2059537;28;20211;-67
2022/10/17 04:50:22;;;;;;;23.47;12.53;;;;;;;8.98;100.00;103122.66;2057885;28;20204;-68
2022/10/17 04:51:22;;;;;;;25.13;11.07;;;;;;;8.55;100.00;103092.44;2056316;28;20608;-68
2022/10/17 04:52:24;;;;;;;30.27;12.03;;;;;;;8.73;100.00;103135.16;2054025;28;20197;-67
2022/10/17 04:53:25;;;;;;;21.83;11.97;;;;;;;8.61;100.00;103132.47;2056967;28;20220;-67
2022/10/17 04:54:26;;;;;;;29.80;18.37;;;;;;;8.43;100.00;103124.91;2059969;28;20510;-68
2022/10/17 04:55:26;;;;;;;26.47;13.13;;;;;;;8.06;100.00;103082.13;2060230;28;20961;-67
2022/10/17 04:56:27;;;;;;;34.23;13.93;;;;;;;8.32;100.00;103143.19;2058548;28;20183;-68
2022/10/17 04:57:27;;;;;;;27.73;11.30;;;;;;;8.23;100.00;103137.03;2059008;28;20186;-67